createdAt,value
2022-11-24T14:48:29.496Z,6.72
2022-11-24T14:51:23.378Z,7.93
2022-11-24T14:54:29.028Z,8.32
2022-11-24T14:57:26.912Z,5.30
2022-11-24T15:00:24.867Z,6.53
2022-11-24T15:03:18.740Z,7.28
2022-11-24T15:06:19.866Z,6.15
2022-11-24T15:09:19.719Z,5.70
2022-11-24T15:12:12.830Z,6.10
2022-11-24T15:15:15.698Z,5.20
2022-11-24T15:18:05.887Z,6.72
2022-11-24T15:20:53.935Z,5.70
2022-11-24T15:23:42.959Z,6.15
2022-11-24T15:26:36.738Z,4.78
2022-11-24T15:29:27.788Z,6.07
2022-11-24T15:32:16.670Z,7.85
2022-11-24T15:35:04.682Z,5.43
2022-11-24T15:37:52.548Z,6.97
2022-11-24T15:40:42.523Z,4.97
2022-11-24T15:43:42.748Z,6.38
2022-11-24T15:46:37.833Z,5.25
2022-11-24T15:49:25.642Z,5.25
2022-11-24T15:52:17.509Z,6.60
2022-11-24T15:55:05.870Z,7.35
2022-11-24T15:57:53.536Z,6.78
2022-11-24T16:00:42.358Z,5.28
2022-11-24T16:03:47.543Z,4.88
2022-11-24T16:06:36.041Z,6.47
2022-11-24T16:09:23.646Z,4.93
2022-11-24T16:12:11.255Z,5.95
2022-11-24T16:14:58.793Z,7.43
2022-11-24T16:17:46.670Z,7.53
2022-11-24T16:20:36.135Z,6.20
2022-11-24T16:23:23.978Z,5.13
2022-11-24T16:26:11.583Z,5.70
2022-11-24T16:28:59.211Z,10.25
2022-11-24T16:31:47.653Z,6.50
2022-11-24T16:34:35.438Z,6.50
2022-11-24T16:37:23.256Z,5.70
2022-11-24T16:40:19.866Z,5.22
2022-11-24T16:46:28.954Z,6.32
2022-11-24T16:49:17.080Z,6.03
2022-11-24T16:52:05.062Z,7.15
2022-11-24T16:54:52.661Z,6.40
2022-11-24T16:57:40.599Z,6.32
2022-11-24T17:00:28.360Z,6.28
2022-11-24T17:03:16.042Z,6.65
2022-11-24T17:06:05.613Z,5.43
2022-11-24T17:08:55.618Z,5.47
2022-11-24T17:11:43.242Z,4.38
2022-11-24T17:14:30.898Z,5.50
2022-11-24T17:17:18.517Z,5.20
2022-11-24T17:20:06.926Z,5.45
2022-11-24T17:22:54.613Z,4.63
2022-11-24T17:25:42.182Z,4.63
2022-11-24T17:28:30.228Z,5.63
2022-11-24T17:31:35.782Z,5.68
2022-11-24T17:34:23.569Z,6.78
2022-11-24T17:37:11.157Z,5.28
2022-11-24T17:40:26.962Z,5.30
2022-11-24T17:43:17.095Z,6.43
2022-11-24T17:46:05.957Z,5.72
2022-11-24T17:48:54.487Z,5.18
2022-11-24T17:51:42.468Z,4.57
2022-11-24T17:54:46.620Z,5.13
2022-11-24T17:57:35.281Z,6.28
2022-11-24T18:00:23.364Z,5.90
2022-11-24T18:03:11.527Z,4.80
2022-11-24T18:06:07.061Z,4.30
2022-11-24T18:08:57.535Z,5.20
2022-11-24T18:11:45.442Z,4.80
2022-11-24T18:14:33.671Z,4.47
2022-11-24T18:17:21.711Z,4.90
2022-11-24T18:20:09.915Z,4.88
2022-11-24T18:23:05.661Z,4.30
2022-11-24T18:26:03.906Z,4.35
2022-11-24T18:30:01.857Z,3.78
2022-11-24T18:32:38.913Z,4.50
2022-11-24T18:35:27.093Z,3.63
2022-11-24T18:38:15.154Z,4.38
2022-11-24T18:41:04.340Z,3.95
2022-11-24T18:43:52.560Z,4.47
2022-11-24T18:46:40.334Z,4.57
2022-11-24T18:49:38.168Z,4.55
2022-11-24T18:52:25.975Z,4.47
2022-11-24T18:55:16.010Z,4.50
2022-11-24T18:58:33.772Z,4.68
2022-11-24T19:01:25.099Z,5.15
2022-11-24T19:04:20.224Z,6.93
2022-11-24T19:07:09.073Z,5.22
2022-11-24T19:10:21.963Z,4.85
2022-11-24T19:13:51.183Z,5.38
2022-11-24T19:18:05.564Z,4.47
2022-11-24T19:20:56.681Z,3.88
2022-11-24T19:23:44.795Z,4.70
2022-11-24T19:26:36.721Z,4.63
2022-11-24T19:29:24.678Z,7.82
2022-11-24T19:32:13.087Z,4.88
2022-11-24T19:35:04.886Z,3.78
2022-11-24T19:37:57.746Z,4.22
2022-11-24T19:40:51.065Z,3.85
2022-11-24T19:43:39.727Z,4.13
2022-11-24T19:46:42.356Z,4.03
2022-11-24T19:49:34.176Z,4.25
2022-11-24T19:52:27.477Z,3.97
2022-11-24T19:55:18.565Z,3.85
2022-11-24T19:58:09.999Z,3.25
2022-11-24T20:01:16.752Z,4.18
2022-11-24T20:04:09.475Z,3.80
2022-11-24T20:06:57.089Z,4.10
2022-11-24T20:09:44.686Z,3.63
2022-11-24T20:12:33.283Z,3.45
2022-11-24T20:15:20.927Z,3.10
2022-11-24T20:18:08.643Z,3.25
2022-11-24T20:21:05.522Z,2.65
2022-11-24T20:23:55.860Z,3.20
2022-11-24T20:26:46.946Z,2.72
2022-11-24T20:29:34.611Z,2.60
2022-11-24T20:32:22.255Z,4.50
2022-11-24T20:35:14.988Z,2.95
2022-11-24T20:38:05.579Z,2.80
2022-11-24T20:40:53.600Z,3.35
2022-11-24T20:43:42.771Z,3.63
2022-11-24T20:46:32.358Z,2.67
2022-11-24T20:49:21.895Z,3.78
2022-11-24T20:52:09.555Z,3.22
2022-11-24T20:54:58.331Z,2.55
2022-11-24T20:57:45.936Z,3.50
2022-11-24T21:00:33.542Z,3.70
2022-11-24T21:03:21.155Z,2.70
2022-11-24T21:06:09.700Z,3.40
2022-11-24T21:09:03.414Z,3.60
2022-11-24T21:11:51.713Z,3.88
2022-11-24T21:14:39.767Z,3.05
2022-11-24T21:17:27.613Z,3.45
2022-11-24T21:20:15.448Z,3.13
2022-11-24T21:23:03.825Z,2.58
2022-11-24T21:25:51.432Z,3.38
2022-11-24T21:28:39.137Z,2.45
2022-11-24T21:31:26.750Z,3.58
2022-11-24T21:34:16.238Z,3.50
2022-11-24T21:37:03.892Z,3.20
2022-11-24T21:39:51.553Z,3.55
2022-11-24T21:42:39.098Z,3.42
2022-11-24T21:45:29.209Z,2.65
2022-11-24T21:48:16.769Z,3.08
2022-11-24T21:51:07.077Z,3.05
2022-11-24T21:53:54.642Z,2.85
2022-11-24T21:56:42.177Z,4.10
2022-11-24T21:59:29.812Z,2.42
2022-11-24T22:02:17.467Z,3.28
2022-11-24T22:05:05.475Z,3.60
2022-11-24T22:07:53.180Z,3.25
2022-11-24T22:10:40.825Z,3.20
2022-11-24T22:13:28.563Z,3.20
2022-11-24T22:16:24.088Z,3.33
2022-11-24T22:19:11.922Z,3.28
2022-11-24T22:21:59.585Z,2.78
2022-11-24T22:24:47.234Z,3.90
2022-11-24T22:27:34.815Z,3.35
2022-11-24T22:30:22.851Z,2.90
2022-11-24T22:33:10.475Z,3.15
2022-11-24T22:35:59.735Z,5.10
2022-11-24T22:38:48.397Z,3.30
2022-11-24T22:41:36.117Z,3.92
2022-11-24T22:44:23.688Z,3.65
2022-11-24T22:47:11.307Z,2.92
2022-11-24T22:49:58.993Z,3.72
2022-11-24T22:52:46.608Z,3.55
2022-11-24T22:55:35.541Z,3.35
2022-11-24T22:58:23.173Z,3.33
2022-11-24T23:01:15.034Z,3.05
2022-11-24T23:04:03.899Z,2.40
2022-11-24T23:06:51.863Z,2.20
2022-11-24T23:09:39.509Z,3.25
2022-11-24T23:12:27.127Z,2.40
2022-11-24T23:15:14.926Z,2.53
2022-11-24T23:18:02.657Z,2.47
2022-11-24T23:20:50.258Z,2.53
2022-11-24T23:23:37.849Z,2.47
2022-11-24T23:26:34.510Z,2.78
2022-11-24T23:32:09.580Z,2.40
2022-11-24T23:34:57.257Z,3.08
2022-11-24T23:38:06.644Z,2.65
2022-11-24T23:40:55.700Z,2.72
2022-11-24T23:43:43.868Z,2.70
2022-11-24T23:46:31.538Z,2.20
2022-11-24T23:49:19.219Z,2.47
2022-11-24T23:52:07.024Z,2.67
2022-11-24T23:54:54.645Z,2.80
2022-11-24T23:57:42.247Z,2.20
